sensor_id;sensor_type;location;lat;lon;timestamp;temperature;humidity
25616;DHT22;13482;48.234;13.006;2022-08-11T00:01:19;19.80;54.60
25616;DHT22;13482;48.234;13.006;2022-08-11T00:03:53;19.70;54.70
25616;DHT22;13482;48.234;13.006;2022-08-11T00:06:31;19.70;54.70
25616;DHT22;13482;48.234;13.006;2022-08-11T00:09:04;19.70;55.60
25616;DHT22;13482;48.234;13.006;2022-08-11T00:11:44;19.60;55.00
25616;DHT22;13482;48.234;13.006;2022-08-11T00:14:22;19.60;55.70
25616;DHT22;13482;48.234;13.006;2022-08-11T00:17:13;19.60;55.50
25616;DHT22;13482;48.234;13.006;2022-08-11T00:19:46;19.60;55.80
25616;DHT22;13482;48.234;13.006;2022-08-11T00:22:36;19.50;55.20
25616;DHT22;13482;48.234;13.006;2022-08-11T00:25:14;19.50;55.10
25616;DHT22;13482;48.234;13.006;2022-08-11T00:27:44;19.50;55.80
25616;DHT22;13482;48.234;13.006;2022-08-11T00:30:13;19.40;55.40
25616;DHT22;13482;48.234;13.006;2022-08-11T00:32:44;19.40;55.60
25616;DHT22;13482;48.234;13.006;2022-08-11T00:35:25;19.40;55.70
25616;DHT22;13482;48.234;13.006;2022-08-11T00:38:15;19.40;56.00
25616;DHT22;13482;48.234;13.006;2022-08-11T00:41:00;19.40;55.80
25616;DHT22;13482;48.234;13.006;2022-08-11T00:49:10;19.40;57.00
25616;DHT22;13482;48.234;13.006;2022-08-11T00:55:06;19.40;57.50
25616;DHT22;13482;48.234;13.006;2022-08-11T01:01:20;19.40;57.40
25616;DHT22;13482;48.234;13.006;2022-08-11T01:19:25;19.30;56.20
25616;DHT22;13482;48.234;13.006;2022-08-11T01:22:34;19.20;56.10
25616;DHT22;13482;48.234;13.006;2022-08-11T01:25:54;19.20;56.20
25616;DHT22;13482;48.234;13.006;2022-08-11T01:46:30;19.00;56.50
25616;DHT22;13482;48.234;13.006;2022-08-11T01:49:09;19.00;57.30
25616;DHT22;13482;48.234;13.006;2022-08-11T01:52:12;18.90;56.50
25616;DHT22;13482;48.234;13.006;2022-08-11T01:58:04;18.90;57.50
25616;DHT22;13482;48.234;13.006;2022-08-11T02:04:33;18.80;56.70
25616;DHT22;13482;48.234;13.006;2022-08-11T02:07:18;18.80;56.90
25616;DHT22;13482;48.234;13.006;2022-08-11T02:10:26;18.80;57.10
25616;DHT22;13482;48.234;13.006;2022-08-11T02:13:40;18.70;58.30
25616;DHT22;13482;48.234;13.006;2022-08-11T02:22:08;18.60;58.60
25616;DHT22;13482;48.234;13.006;2022-08-11T02:25:03;18.60;57.30
25616;DHT22;13482;48.234;13.006;2022-08-11T02:27:41;18.60;57.60
25616;DHT22;13482;48.234;13.006;2022-08-11T02:30:13;18.60;58.00
25616;DHT22;13482;48.234;13.006;2022-08-11T02:35:42;18.50;58.70
25616;DHT22;13482;48.234;13.006;2022-08-11T02:41:26;18.50;57.80
25616;DHT22;13482;48.234;13.006;2022-08-11T02:51:24;18.50;58.90
25616;DHT22;13482;48.234;13.006;2022-08-11T02:57:03;18.50;58.50
25616;DHT22;13482;48.234;13.006;2022-08-11T02:59:54;18.50;59.50
25616;DHT22;13482;48.234;13.006;2022-08-11T03:20:47;18.50;58.40
25616;DHT22;13482;48.234;13.006;2022-08-11T03:23:32;18.50;58.90
25616;DHT22;13482;48.234;13.006;2022-08-11T03:26:23;18.50;59.10
25616;DHT22;13482;48.234;13.006;2022-08-11T03:31:58;18.50;59.20
25616;DHT22;13482;48.234;13.006;2022-08-11T03:34:32;18.50;59.20
25616;DHT22;13482;48.234;13.006;2022-08-11T03:40:38;18.50;59.80
25616;DHT22;13482;48.234;13.006;2022-08-11T03:49:26;18.50;58.80
25616;DHT22;13482;48.234;13.006;2022-08-11T03:52:22;18.50;59.60
25616;DHT22;13482;48.234;13.006;2022-08-11T04:03:41;18.50;58.80
25616;DHT22;13482;48.234;13.006;2022-08-11T04:23:00;18.50;60.30
25616;DHT22;13482;48.234;13.006;2022-08-11T04:48:05;19.00;59.90
25616;DHT22;13482;48.234;13.006;2022-08-11T04:51:16;19.20;60.30
25616;DHT22;13482;48.234;13.006;2022-08-11T04:55:19;19.30;60.40
25616;DHT22;13482;48.234;13.006;2022-08-11T05:13:43;20.40;60.00
25616;DHT22;13482;48.234;13.006;2022-08-11T05:17:09;20.60;60.10
25616;DHT22;13482;48.234;13.006;2022-08-11T05:20:00;20.80;59.50
25616;DHT22;13482;48.234;13.006;2022-08-11T05:22:50;21.00;59.30
25616;DHT22;13482;48.234;13.006;2022-08-11T05:25:36;21.20;59.30
25616;DHT22;13482;48.234;13.006;2022-08-11T05:28:54;21.30;59.10
25616;DHT22;13482;48.234;13.006;2022-08-11T05:31:54;21.50;58.90
25616;DHT22;13482;48.234;13.006;2022-08-11T05:34:46;21.70;58.80
25616;DHT22;13482;48.234;13.006;2022-08-11T05:40:09;21.90;58.50
25616;DHT22;13482;48.234;13.006;2022-08-11T05:43:01;22.10;58.70
25616;DHT22;13482;48.234;13.006;2022-08-11T05:46:02;22.20;58.50
25616;DHT22;13482;48.234;13.006;2022-08-11T05:48:50;22.40;58.40
25616;DHT22;13482;48.234;13.006;2022-08-11T05:51:40;22.50;58.00
25616;DHT22;13482;48.234;13.006;2022-08-11T05:54:40;22.60;57.90
25616;DHT22;13482;48.234;13.006;2022-08-11T05:57:35;22.80;57.80
25616;DHT22;13482;48.234;13.006;2022-08-11T06:00:17;22.90;57.70
25616;DHT22;13482;48.234;13.006;2022-08-11T06:02:53;23.00;57.70
25616;DHT22;13482;48.234;13.006;2022-08-11T06:05:23;23.20;57.60
25616;DHT22;13482;48.234;13.006;2022-08-11T06:08:08;23.30;57.50
25616;DHT22;13482;48.234;13.006;2022-08-11T06:10:40;23.50;57.40
25616;DHT22;13482;48.234;13.006;2022-08-11T06:13:10;23.60;57.30
25616;DHT22;13482;48.234;13.006;2022-08-11T06:15:49;23.70;57.10
25616;DHT22;13482;48.234;13.006;2022-08-11T06:18:22;23.90;56.90
25616;DHT22;13482;48.234;13.006;2022-08-11T06:20:56;24.00;56.70
25616;DHT22;13482;48.234;13.006;2022-08-11T06:23:30;24.10;56.40
25616;DHT22;13482;48.234;13.006;2022-08-11T06:26:10;24.20;56.40
25616;DHT22;13482;48.234;13.006;2022-08-11T06:28:42;24.30;56.30
25616;DHT22;13482;48.234;13.006;2022-08-11T06:31:21;24.40;56.20
25616;DHT22;13482;48.234;13.006;2022-08-11T06:34:11;24.50;55.90
25616;DHT22;13482;48.234;13.006;2022-08-11T06:36:58;24.70;55.90
25616;DHT22;13482;48.234;13.006;2022-08-11T06:39:47;24.80;55.70
25616;DHT22;13482;48.234;13.006;2022-08-11T06:45:20;25.00;55.40
25616;DHT22;13482;48.234;13.006;2022-08-11T06:47:53;25.10;55.30
25616;DHT22;13482;48.234;13.006;2022-08-11T06:50:22;25.20;55.40
25616;DHT22;13482;48.234;13.006;2022-08-11T06:53:08;25.30;55.30
25616;DHT22;13482;48.234;13.006;2022-08-11T06:55:40;25.40;55.30
25616;DHT22;13482;48.234;13.006;2022-08-11T06:58:33;25.60;55.40
25616;DHT22;13482;48.234;13.006;2022-08-11T07:04:28;25.80;55.00
25616;DHT22;13482;48.234;13.006;2022-08-11T07:13:18;26.20;54.50
25616;DHT22;13482;48.234;13.006;2022-08-11T07:16:14;26.40;54.40
25616;DHT22;13482;48.234;13.006;2022-08-11T07:19:04;26.50;54.50
25616;DHT22;13482;48.234;13.006;2022-08-11T07:21:52;26.60;54.40
25616;DHT22;13482;48.234;13.006;2022-08-11T07:24:51;26.70;54.30
25616;DHT22;13482;48.234;13.006;2022-08-11T07:27:45;26.80;54.20
25616;DHT22;13482;48.234;13.006;2022-08-11T07:30:38;27.00;53.70
25616;DHT22;13482;48.234;13.006;2022-08-11T07:33:07;27.10;53.80
25616;DHT22;13482;48.234;13.006;2022-08-11T07:35:58;27.20;53.60
25616;DHT22;13482;48.234;13.006;2022-08-11T07:38:34;27.30;53.50
25616;DHT22;13482;48.234;13.006;2022-08-11T07:41:25;27.40;53.20
25616;DHT22;13482;48.234;13.006;2022-08-11T07:43:56;27.50;53.10
25616;DHT22;13482;48.234;13.006;2022-08-11T07:46:46;27.50;53.00
25616;DHT22;13482;48.234;13.006;2022-08-11T07:49:37;27.70;52.50
25616;DHT22;13482;48.234;13.006;2022-08-11T07:52:30;27.70;52.60
25616;DHT22;13482;48.234;13.006;2022-08-11T07:55:06;27.80;52.50
25616;DHT22;13482;48.234;13.006;2022-08-11T07:57:36;27.90;52.40
25616;DHT22;13482;48.234;13.006;2022-08-11T08:00:52;28.00;52.50
25616;DHT22;13482;48.234;13.006;2022-08-11T08:03:48;28.10;52.20
25616;DHT22;13482;48.234;13.006;2022-08-11T08:06:34;28.30;52.20
25616;DHT22;13482;48.234;13.006;2022-08-11T08:09:21;28.40;52.00
25616;DHT22;13482;48.234;13.006;2022-08-11T08:12:09;28.50;51.80
25616;DHT22;13482;48.234;13.006;2022-08-11T08:14:56;28.60;51.60
25616;DHT22;13482;48.234;13.006;2022-08-11T08:17:43;28.70;51.50
25616;DHT22;13482;48.234;13.006;2022-08-11T08:20:48;28.90;51.40
25616;DHT22;13482;48.234;13.006;2022-08-11T08:23:18;29.00;51.00
25616;DHT22;13482;48.234;13.006;2022-08-11T08:26:02;29.20;51.20
25616;DHT22;13482;48.234;13.006;2022-08-11T08:28:31;29.30;50.70
25616;DHT22;13482;48.234;13.006;2022-08-11T08:30:59;29.40;50.50
25616;DHT22;13482;48.234;13.006;2022-08-11T08:33:31;29.50;50.30
25616;DHT22;13482;48.234;13.006;2022-08-11T08:36:01;29.60;49.90
25616;DHT22;13482;48.234;13.006;2022-08-11T08:38:49;29.70;49.90
25616;DHT22;13482;48.234;13.006;2022-08-11T08:41:28;29.80;49.70
25616;DHT22;13482;48.234;13.006;2022-08-11T08:44:06;29.90;49.20
25616;DHT22;13482;48.234;13.006;2022-08-11T08:46:57;29.90;48.90
25616;DHT22;13482;48.234;13.006;2022-08-11T08:49:32;30.00;49.20
25616;DHT22;13482;48.234;13.006;2022-08-11T08:52:08;30.10;49.00
25616;DHT22;13482;48.234;13.006;2022-08-11T08:55:02;30.10;49.10
25616;DHT22;13482;48.234;13.006;2022-08-11T08:57:34;30.20;48.90
25616;DHT22;13482;48.234;13.006;2022-08-11T09:00:07;30.20;48.70
25616;DHT22;13482;48.234;13.006;2022-08-11T09:02:40;30.20;48.50
25616;DHT22;13482;48.234;13.006;2022-08-11T09:05:08;30.30;48.60
25616;DHT22;13482;48.234;13.006;2022-08-11T09:07:37;30.30;48.60
25616;DHT22;13482;48.234;13.006;2022-08-11T09:10:08;30.30;48.60
25616;DHT22;13482;48.234;13.006;2022-08-11T09:12:39;30.40;48.50
25616;DHT22;13482;48.234;13.006;2022-08-11T09:15:11;30.50;48.30
25616;DHT22;13482;48.234;13.006;2022-08-11T09:17:47;30.60;48.30
25616;DHT22;13482;48.234;13.006;2022-08-11T09:20:21;30.70;48.20
25616;DHT22;13482;48.234;13.006;2022-08-11T09:22:56;30.80;47.80
25616;DHT22;13482;48.234;13.006;2022-08-11T09:26:03;30.80;47.60
25616;DHT22;13482;48.234;13.006;2022-08-11T09:28:58;30.90;47.80
25616;DHT22;13482;48.234;13.006;2022-08-11T09:31:29;31.00;47.80
25616;DHT22;13482;48.234;13.006;2022-08-11T09:34:06;31.00;47.70
25616;DHT22;13482;48.234;13.006;2022-08-11T09:36:37;31.10;47.90
25616;DHT22;13482;48.234;13.006;2022-08-11T09:39:26;31.20;47.80
25616;DHT22;13482;48.234;13.006;2022-08-11T09:42:15;31.40;47.60
25616;DHT22;13482;48.234;13.006;2022-08-11T09:44:49;31.50;47.30
25616;DHT22;13482;48.234;13.006;2022-08-11T09:47:29;31.60;47.00
25616;DHT22;13482;48.234;13.006;2022-08-11T09:49:59;31.70;46.40
25616;DHT22;13482;48.234;13.006;2022-08-11T09:52:36;31.70;46.80
25616;DHT22;13482;48.234;13.006;2022-08-11T09:55:23;31.80;45.90
25616;DHT22;13482;48.234;13.006;2022-08-11T09:57:50;31.80;46.50
25616;DHT22;13482;48.234;13.006;2022-08-11T10:00:37;31.80;46.40
25616;DHT22;13482;48.234;13.006;2022-08-11T10:03:14;31.90;46.30
25616;DHT22;13482;48.234;13.006;2022-08-11T10:05:46;31.90;46.20
25616;DHT22;13482;48.234;13.006;2022-08-11T10:08:36;32.00;46.20
25616;DHT22;13482;48.234;13.006;2022-08-11T10:11:06;32.00;45.90
25616;DHT22;13482;48.234;13.006;2022-08-11T10:13:42;32.10;45.60
25616;DHT22;13482;48.234;13.006;2022-08-11T10:16:50;32.10;45.20
25616;DHT22;13482;48.234;13.006;2022-08-11T10:19:18;32.00;45.30
25616;DHT22;13482;48.234;13.006;2022-08-11T10:21:53;32.00;45.00
25616;DHT22;13482;48.234;13.006;2022-08-11T10:24:40;31.90;44.50
25616;DHT22;13482;48.234;13.006;2022-08-11T10:27:28;31.80;45.30
25616;DHT22;13482;48.234;13.006;2022-08-11T10:30:15;31.80;45.70
25616;DHT22;13482;48.234;13.006;2022-08-11T10:33:02;31.90;45.80
25616;DHT22;13482;48.234;13.006;2022-08-11T10:36:06;32.00;45.90
25616;DHT22;13482;48.234;13.006;2022-08-11T10:38:43;32.10;45.40
25616;DHT22;13482;48.234;13.006;2022-08-11T10:41:13;32.20;45.10
25616;DHT22;13482;48.234;13.006;2022-08-11T10:43:59;32.30;44.90
25616;DHT22;13482;48.234;13.006;2022-08-11T10:46:30;32.30;45.00
25616;DHT22;13482;48.234;13.006;2022-08-11T10:49:18;32.30;45.20
25616;DHT22;13482;48.234;13.006;2022-08-11T10:51:46;32.40;45.20
25616;DHT22;13482;48.234;13.006;2022-08-11T10:54:33;32.50;45.00
25616;DHT22;13482;48.234;13.006;2022-08-11T10:57:19;32.60;44.90
25616;DHT22;13482;48.234;13.006;2022-08-11T11:00:06;32.70;44.90
25616;DHT22;13482;48.234;13.006;2022-08-11T11:02:36;32.80;44.90
25616;DHT22;13482;48.234;13.006;2022-08-11T11:05:14;32.80;44.80
25616;DHT22;13482;48.234;13.006;2022-08-11T11:07:54;32.90;44.20
25616;DHT22;13482;48.234;13.006;2022-08-11T11:10:26;33.00;44.40
25616;DHT22;13482;48.234;13.006;2022-08-11T11:12:55;33.10;44.40
25616;DHT22;13482;48.234;13.006;2022-08-11T11:15:44;33.20;44.30
25616;DHT22;13482;48.234;13.006;2022-08-11T11:18:33;33.20;44.30
25616;DHT22;13482;48.234;13.006;2022-08-11T11:21:05;33.30;44.50
25616;DHT22;13482;48.234;13.006;2022-08-11T11:23:40;33.40;44.50
25616;DHT22;13482;48.234;13.006;2022-08-11T11:29:47;33.60;43.50
25616;DHT22;13482;48.234;13.006;2022-08-11T11:32:26;33.60;43.60
25616;DHT22;13482;48.234;13.006;2022-08-11T11:37:50;33.80;43.60
25616;DHT22;13482;48.234;13.006;2022-08-11T11:40:30;33.80;43.80
25616;DHT22;13482;48.234;13.006;2022-08-11T11:42:59;33.90;43.60
25616;DHT22;13482;48.234;13.006;2022-08-11T11:45:27;34.00;43.60
25616;DHT22;13482;48.234;13.006;2022-08-11T11:47:55;34.00;43.70
25616;DHT22;13482;48.234;13.006;2022-08-11T11:50:26;34.10;43.50
25616;DHT22;13482;48.234;13.006;2022-08-11T11:53:00;34.20;43.20
25616;DHT22;13482;48.234;13.006;2022-08-11T11:55:29;34.30;43.00
25616;DHT22;13482;48.234;13.006;2022-08-11T11:58:01;34.30;43.00
25616;DHT22;13482;48.234;13.006;2022-08-11T12:00:49;34.40;42.80
25616;DHT22;13482;48.234;13.006;2022-08-11T12:03:36;34.40;42.90
25616;DHT22;13482;48.234;13.006;2022-08-11T12:06:06;34.40;42.70
25616;DHT22;13482;48.234;13.006;2022-08-11T12:08:34;34.40;42.70
25616;DHT22;13482;48.234;13.006;2022-08-11T12:11:05;34.40;42.80
25616;DHT22;13482;48.234;13.006;2022-08-11T12:13:56;34.40;42.70
25616;DHT22;13482;48.234;13.006;2022-08-11T12:16:25;34.50;42.70
25616;DHT22;13482;48.234;13.006;2022-08-11T12:19:04;34.50;42.50
25616;DHT22;13482;48.234;13.006;2022-08-11T12:21:35;34.60;42.30
25616;DHT22;13482;48.234;13.006;2022-08-11T12:24:04;34.60;42.40
25616;DHT22;13482;48.234;13.006;2022-08-11T12:26:55;34.70;42.10
25616;DHT22;13482;48.234;13.006;2022-08-11T12:29:46;34.80;42.30
25616;DHT22;13482;48.234;13.006;2022-08-11T12:32:23;34.90;42.20
25616;DHT22;13482;48.234;13.006;2022-08-11T12:34:54;34.90;41.90
25616;DHT22;13482;48.234;13.006;2022-08-11T12:37:33;35.00;41.90
25616;DHT22;13482;48.234;13.006;2022-08-11T12:40:13;35.00;41.50
25616;DHT22;13482;48.234;13.006;2022-08-11T12:43:21;35.10;41.50
25616;DHT22;13482;48.234;13.006;2022-08-11T12:46:13;35.10;41.30
25616;DHT22;13482;48.234;13.006;2022-08-11T12:48:45;35.10;41.00
25616;DHT22;13482;48.234;13.006;2022-08-11T12:51:40;35.00;40.90
25616;DHT22;13482;48.234;13.006;2022-08-11T12:55:03;35.00;40.50
25616;DHT22;13482;48.234;13.006;2022-08-11T12:58:01;35.00;40.80
25616;DHT22;13482;48.234;13.006;2022-08-11T13:00:47;35.00;41.50
25616;DHT22;13482;48.234;13.006;2022-08-11T13:03:38;35.00;41.40
25616;DHT22;13482;48.234;13.006;2022-08-11T13:06:24;35.10;41.40
25616;DHT22;13482;48.234;13.006;2022-08-11T13:08:54;35.10;41.10
25616;DHT22;13482;48.234;13.006;2022-08-11T13:11:27;35.10;41.20
25616;DHT22;13482;48.234;13.006;2022-08-11T13:14:24;35.20;41.10
25616;DHT22;13482;48.234;13.006;2022-08-11T13:16:52;35.20;41.10
25616;DHT22;13482;48.234;13.006;2022-08-11T13:19:40;35.20;41.00
25616;DHT22;13482;48.234;13.006;2022-08-11T13:22:17;35.20;41.00
25616;DHT22;13482;48.234;13.006;2022-08-11T13:24:45;35.20;40.80
25616;DHT22;13482;48.234;13.006;2022-08-11T13:27:17;35.20;40.80
25616;DHT22;13482;48.234;13.006;2022-08-11T13:29:45;35.20;40.90
25616;DHT22;13482;48.234;13.006;2022-08-11T13:32:14;35.10;40.70
25616;DHT22;13482;48.234;13.006;2022-08-11T13:34:43;35.10;40.60
25616;DHT22;13482;48.234;13.006;2022-08-11T13:37:12;35.00;40.60
25616;DHT22;13482;48.234;13.006;2022-08-11T13:39:42;35.00;40.80
25616;DHT22;13482;48.234;13.006;2022-08-11T13:42:18;34.90;40.80
25616;DHT22;13482;48.234;13.006;2022-08-11T13:44:46;34.80;40.80
25616;DHT22;13482;48.234;13.006;2022-08-11T13:47:14;34.80;40.70
25616;DHT22;13482;48.234;13.006;2022-08-11T13:49:43;34.70;40.50
25616;DHT22;13482;48.234;13.006;2022-08-11T13:52:14;34.70;40.40
25616;DHT22;13482;48.234;13.006;2022-08-11T13:54:45;34.60;40.20
25616;DHT22;13482;48.234;13.006;2022-08-11T13:57:14;34.60;40.50
25616;DHT22;13482;48.234;13.006;2022-08-11T14:00:07;34.50;40.50
25616;DHT22;13482;48.234;13.006;2022-08-11T14:02:50;34.50;40.30
25616;DHT22;13482;48.234;13.006;2022-08-11T14:05:24;34.50;40.40
25616;DHT22;13482;48.234;13.006;2022-08-11T14:08:06;34.40;40.10
25616;DHT22;13482;48.234;13.006;2022-08-11T14:11:02;34.40;40.20
25616;DHT22;13482;48.234;13.006;2022-08-11T14:14:11;34.40;40.60
25616;DHT22;13482;48.234;13.006;2022-08-11T14:16:43;34.40;40.40
25616;DHT22;13482;48.234;13.006;2022-08-11T14:19:13;34.30;40.30
25616;DHT22;13482;48.234;13.006;2022-08-11T14:21:42;34.30;40.30
25616;DHT22;13482;48.234;13.006;2022-08-11T14:24:41;34.30;40.20
25616;DHT22;13482;48.234;13.006;2022-08-11T14:27:10;34.30;40.30
25616;DHT22;13482;48.234;13.006;2022-08-11T14:29:58;34.20;40.40
25616;DHT22;13482;48.234;13.006;2022-08-11T14:32:26;34.30;40.50
25616;DHT22;13482;48.234;13.006;2022-08-11T14:34:54;34.30;40.40
25616;DHT22;13482;48.234;13.006;2022-08-11T14:37:23;34.30;40.20
25616;DHT22;13482;48.234;13.006;2022-08-11T14:39:58;34.30;40.00
25616;DHT22;13482;48.234;13.006;2022-08-11T14:42:30;34.20;39.70
25616;DHT22;13482;48.234;13.006;2022-08-11T14:45:16;34.20;39.90
25616;DHT22;13482;48.234;13.006;2022-08-11T14:48:22;34.10;39.90
25616;DHT22;13482;48.234;13.006;2022-08-11T14:50:49;34.00;39.90
25616;DHT22;13482;48.234;13.006;2022-08-11T14:53:20;33.90;40.00
25616;DHT22;13482;48.234;13.006;2022-08-11T14:55:48;33.80;39.90
25616;DHT22;13482;48.234;13.006;2022-08-11T14:58:35;33.70;39.90
25616;DHT22;13482;48.234;13.006;2022-08-11T15:01:04;33.60;40.10
25616;DHT22;13482;48.234;13.006;2022-08-11T15:03:51;33.50;40.20
25616;DHT22;13482;48.234;13.006;2022-08-11T15:06:39;33.40;40.20
25616;DHT22;13482;48.234;13.006;2022-08-11T15:09:06;33.40;40.20
25616;DHT22;13482;48.234;13.006;2022-08-11T15:11:35;33.40;40.20
25616;DHT22;13482;48.234;13.006;2022-08-11T15:14:21;33.30;40.40
25616;DHT22;13482;48.234;13.006;2022-08-11T15:17:08;33.30;40.30
25616;DHT22;13482;48.234;13.006;2022-08-11T15:19:39;33.30;40.30
25616;DHT22;13482;48.234;13.006;2022-08-11T15:22:26;33.30;40.00
25616;DHT22;13482;48.234;13.006;2022-08-11T15:25:12;33.30;40.00
25616;DHT22;13482;48.234;13.006;2022-08-11T15:27:41;33.30;39.90
25616;DHT22;13482;48.234;13.006;2022-08-11T15:30:29;33.20;39.80
25616;DHT22;13482;48.234;13.006;2022-08-11T15:33:17;33.20;40.10
25616;DHT22;13482;48.234;13.006;2022-08-11T15:36:07;33.20;40.20
25616;DHT22;13482;48.234;13.006;2022-08-11T15:39:14;33.30;40.30
25616;DHT22;13482;48.234;13.006;2022-08-11T15:41:58;33.50;40.60
25616;DHT22;13482;48.234;13.006;2022-08-11T15:45:02;33.70;40.50
25616;DHT22;13482;48.234;13.006;2022-08-11T15:47:55;34.00;40.40
25616;DHT22;13482;48.234;13.006;2022-08-11T15:50:33;34.30;40.60
25616;DHT22;13482;48.234;13.006;2022-08-11T15:54:02;34.60;40.80
25616;DHT22;13482;48.234;13.006;2022-08-11T15:56:25;35.00;40.30
25616;DHT22;13482;48.234;13.006;2022-08-11T15:58:56;35.40;40.70
25616;DHT22;13482;48.234;13.006;2022-08-11T16:02:04;35.70;40.50
25616;DHT22;13482;48.234;13.006;2022-08-11T16:04:53;36.20;40.40
25616;DHT22;13482;48.234;13.006;2022-08-11T16:07:32;36.60;39.90
25616;DHT22;13482;48.234;13.006;2022-08-11T16:10:07;37.00;39.10
25616;DHT22;13482;48.234;13.006;2022-08-11T16:12:58;37.30;39.80
25616;DHT22;13482;48.234;13.006;2022-08-11T16:15:31;37.70;38.60
25616;DHT22;13482;48.234;13.006;2022-08-11T16:18:20;38.10;39.10
25616;DHT22;13482;48.234;13.006;2022-08-11T16:20:54;38.50;38.60
25616;DHT22;13482;48.234;13.006;2022-08-11T16:23:23;38.90;38.00
25616;DHT22;13482;48.234;13.006;2022-08-11T16:25:53;39.20;38.30
25616;DHT22;13482;48.234;13.006;2022-08-11T16:28:42;39.50;38.70
25616;DHT22;13482;48.234;13.006;2022-08-11T16:31:11;39.80;38.10
25616;DHT22;13482;48.234;13.006;2022-08-11T16:33:41;40.10;37.80
25616;DHT22;13482;48.234;13.006;2022-08-11T16:36:18;40.40;37.70
25616;DHT22;13482;48.234;13.006;2022-08-11T16:39:06;40.70;37.30
25616;DHT22;13482;48.234;13.006;2022-08-11T16:41:36;41.00;37.20
25616;DHT22;13482;48.234;13.006;2022-08-11T16:44:24;41.30;36.90
25616;DHT22;13482;48.234;13.006;2022-08-11T16:47:14;41.60;36.90
25616;DHT22;13482;48.234;13.006;2022-08-11T16:50:04;41.90;36.70
25616;DHT22;13482;48.234;13.006;2022-08-11T16:52:32;42.30;36.40
25616;DHT22;13482;48.234;13.006;2022-08-11T16:55:00;42.60;36.20
25616;DHT22;13482;48.234;13.006;2022-08-11T16:57:30;42.70;35.50
25616;DHT22;13482;48.234;13.006;2022-08-11T17:00:18;42.70;34.90
25616;DHT22;13482;48.234;13.006;2022-08-11T17:02:49;42.50;34.50
25616;DHT22;13482;48.234;13.006;2022-08-11T17:05:50;42.10;34.10
25616;DHT22;13482;48.234;13.006;2022-08-11T17:08:49;41.40;33.70
25616;DHT22;13482;48.234;13.006;2022-08-11T17:11:45;40.60;33.80
25616;DHT22;13482;48.234;13.006;2022-08-11T17:14:39;39.80;34.00
25616;DHT22;13482;48.234;13.006;2022-08-11T17:17:20;39.00;34.40
25616;DHT22;13482;48.234;13.006;2022-08-11T17:19:54;38.40;34.50
25616;DHT22;13482;48.234;13.006;2022-08-11T17:22:44;37.70;34.80
25616;DHT22;13482;48.234;13.006;2022-08-11T17:25:30;37.10;35.20
25616;DHT22;13482;48.234;13.006;2022-08-11T17:28:20;36.50;35.40
25616;DHT22;13482;48.234;13.006;2022-08-11T17:30:52;36.00;35.60
25616;DHT22;13482;48.234;13.006;2022-08-11T17:33:50;35.50;35.90
25616;DHT22;13482;48.234;13.006;2022-08-11T17:36:37;35.00;36.10
25616;DHT22;13482;48.234;13.006;2022-08-11T17:39:11;34.50;36.30
25616;DHT22;13482;48.234;13.006;2022-08-11T17:41:39;34.10;36.50
25616;DHT22;13482;48.234;13.006;2022-08-11T17:44:25;33.70;36.80
25616;DHT22;13482;48.234;13.006;2022-08-11T17:47:12;33.30;37.00
25616;DHT22;13482;48.234;13.006;2022-08-11T17:49:59;32.90;37.20
25616;DHT22;13482;48.234;13.006;2022-08-11T17:52:45;32.50;37.40
25616;DHT22;13482;48.234;13.006;2022-08-11T17:55:33;32.10;37.60
25616;DHT22;13482;48.234;13.006;2022-08-11T17:58:23;31.80;38.00
25616;DHT22;13482;48.234;13.006;2022-08-11T18:01:11;31.40;38.20
25616;DHT22;13482;48.234;13.006;2022-08-11T18:03:40;31.10;38.40
25616;DHT22;13482;48.234;13.006;2022-08-11T18:06:26;30.90;38.70
25616;DHT22;13482;48.234;13.006;2022-08-11T18:09:03;30.60;38.90
25616;DHT22;13482;48.234;13.006;2022-08-11T18:11:50;30.40;39.10
25616;DHT22;13482;48.234;13.006;2022-08-11T18:14:41;30.10;39.30
25616;DHT22;13482;48.234;13.006;2022-08-11T18:17:30;29.90;39.50
25616;DHT22;13482;48.234;13.006;2022-08-11T18:20:17;29.60;39.60
25616;DHT22;13482;48.234;13.006;2022-08-11T18:23:06;29.50;39.80
25616;DHT22;13482;48.234;13.006;2022-08-11T18:26:16;29.30;40.00
25616;DHT22;13482;48.234;13.006;2022-08-11T18:29:06;29.10;40.10
25616;DHT22;13482;48.234;13.006;2022-08-11T18:31:53;28.90;40.40
25616;DHT22;13482;48.234;13.006;2022-08-11T18:34:49;28.70;40.50
25616;DHT22;13482;48.234;13.006;2022-08-11T18:37:44;28.50;40.70
25616;DHT22;13482;48.234;13.006;2022-08-11T18:40:32;28.40;41.10
25616;DHT22;13482;48.234;13.006;2022-08-11T18:43:21;28.20;41.00
25616;DHT22;13482;48.234;13.006;2022-08-11T18:46:10;28.10;41.10
25616;DHT22;13482;48.234;13.006;2022-08-11T18:49:01;28.00;41.30
25616;DHT22;13482;48.234;13.006;2022-08-11T18:52:13;27.80;41.50
25616;DHT22;13482;48.234;13.006;2022-08-11T18:55:01;27.70;41.60
25616;DHT22;13482;48.234;13.006;2022-08-11T18:57:49;27.60;41.70
25616;DHT22;13482;48.234;13.006;2022-08-11T19:00:38;27.50;41.90
25616;DHT22;13482;48.234;13.006;2022-08-11T19:03:27;27.40;42.10
25616;DHT22;13482;48.234;13.006;2022-08-11T19:06:17;27.30;42.20
25616;DHT22;13482;48.234;13.006;2022-08-11T19:09:09;27.20;42.30
25616;DHT22;13482;48.234;13.006;2022-08-11T19:11:58;27.10;42.40
25616;DHT22;13482;48.234;13.006;2022-08-11T19:14:47;26.90;42.50
25616;DHT22;13482;48.234;13.006;2022-08-11T19:17:37;26.80;42.70
25616;DHT22;13482;48.234;13.006;2022-08-11T19:20:28;26.70;42.80
25616;DHT22;13482;48.234;13.006;2022-08-11T19:23:17;26.60;42.90
25616;DHT22;13482;48.234;13.006;2022-08-11T19:26:09;26.50;43.00
25616;DHT22;13482;48.234;13.006;2022-08-11T19:28:57;26.40;43.10
25616;DHT22;13482;48.234;13.006;2022-08-11T19:32:03;26.30;43.30
25616;DHT22;13482;48.234;13.006;2022-08-11T19:34:50;26.20;43.30
25616;DHT22;13482;48.234;13.006;2022-08-11T19:37:38;26.10;43.50
25616;DHT22;13482;48.234;13.006;2022-08-11T19:40:24;26.00;43.80
25616;DHT22;13482;48.234;13.006;2022-08-11T19:43:11;25.90;43.80
25616;DHT22;13482;48.234;13.006;2022-08-11T19:45:59;25.80;44.00
25616;DHT22;13482;48.234;13.006;2022-08-11T19:48:50;25.70;44.10
25616;DHT22;13482;48.234;13.006;2022-08-11T19:51:38;25.60;44.30
25616;DHT22;13482;48.234;13.006;2022-08-11T19:54:26;25.50;44.20
25616;DHT22;13482;48.234;13.006;2022-08-11T19:57:14;25.40;44.50
25616;DHT22;13482;48.234;13.006;2022-08-11T20:00:12;25.30;44.60
25616;DHT22;13482;48.234;13.006;2022-08-11T20:03:02;25.20;44.60